createdAt,value
2018-03-23T00:00:36.601Z,4.30
2018-03-23T00:03:04.062Z,4.30
2018-03-23T00:05:31.514Z,4.30
2018-03-23T00:07:58.972Z,4.30
2018-03-23T00:10:26.445Z,4.20
2018-03-23T00:12:53.903Z,4.20
2018-03-23T00:15:21.358Z,4.30
2018-03-23T00:17:48.810Z,4.30
2018-03-23T00:20:16.274Z,4.30
2018-03-23T00:22:43.740Z,4.30
2018-03-23T00:25:11.194Z,4.30
2018-03-23T00:27:38.669Z,4.30
2018-03-23T00:30:06.117Z,4.30
2018-03-23T00:32:33.584Z,4.30
2018-03-23T00:35:01.041Z,4.30
2018-03-23T00:37:28.506Z,4.30
2018-03-23T00:39:55.967Z,4.20
2018-03-23T00:42:23.427Z,4.20
2018-03-23T00:44:50.879Z,4.20
2018-03-23T00:47:18.373Z,4.20
2018-03-23T00:49:45.847Z,4.20
2018-03-23T00:52:13.310Z,4.20
2018-03-23T00:54:40.783Z,4.20
2018-03-23T00:57:08.255Z,4.20
2018-03-23T00:59:35.709Z,4.10
2018-03-23T01:02:03.166Z,4.10
2018-03-23T01:04:30.722Z,4.20
2018-03-23T01:06:58.180Z,4.30
2018-03-23T01:09:25.667Z,4.30
2018-03-23T01:11:53.172Z,4.30
2018-03-23T01:14:20.637Z,4.30
2018-03-23T01:16:48.094Z,4.20
2018-03-23T01:19:15.568Z,4.10
2018-03-23T01:21:43.024Z,4.10
2018-03-23T01:24:10.483Z,4.20
2018-03-23T01:26:37.933Z,4.20
2018-03-23T01:29:05.407Z,4.20
2018-03-23T01:31:32.873Z,4.30
2018-03-23T01:34:00.334Z,4.30
2018-03-23T01:36:27.808Z,4.40
2018-03-23T01:38:56.043Z,4.40
2018-03-23T01:41:24.482Z,4.40
2018-03-23T01:43:52.123Z,4.30
2018-03-23T01:46:20.362Z,4.20
2018-03-23T01:48:47.815Z,4.20
2018-03-23T01:51:15.276Z,4.30
2018-03-23T01:53:43.658Z,4.30
2018-03-23T01:56:11.106Z,4.30
2018-03-23T01:58:38.636Z,4.30
2018-03-23T02:01:06.099Z,4.20
2018-03-23T02:03:33.546Z,4.30
2018-03-23T02:06:01.019Z,4.30
2018-03-23T02:08:28.490Z,4.40
2018-03-23T02:10:56.099Z,4.40
2018-03-23T02:13:24.324Z,4.40
2018-03-23T02:15:51.784Z,4.40
2018-03-23T02:18:19.235Z,4.30
2018-03-23T02:20:46.695Z,4.40
2018-03-23T02:23:14.151Z,4.40
2018-03-23T02:25:41.614Z,4.40
2018-03-23T02:28:09.076Z,4.40
2018-03-23T02:30:36.549Z,4.40
2018-03-23T02:33:04.012Z,4.40
2018-03-23T02:35:31.483Z,4.40
2018-03-23T02:37:58.927Z,4.40
2018-03-23T02:40:26.394Z,4.40
2018-03-23T02:42:53.850Z,4.30
2018-03-23T02:45:21.300Z,4.30
2018-03-23T02:47:48.779Z,4.30
2018-03-23T02:50:16.227Z,4.30
2018-03-23T02:52:43.676Z,4.40
2018-03-23T02:55:11.138Z,4.40
2018-03-23T02:57:53.483Z,4.30
2018-03-23T03:00:20.924Z,4.30
2018-03-23T03:02:49.137Z,4.30
2018-03-23T03:05:17.025Z,4.30
2018-03-23T03:07:44.484Z,4.30
2018-03-23T03:10:11.937Z,4.30
2018-03-23T03:12:39.386Z,4.30
2018-03-23T03:15:06.831Z,4.30
2018-03-23T03:17:34.322Z,4.30
2018-03-23T03:20:01.754Z,4.30
2018-03-23T03:22:29.209Z,4.30
2018-03-23T03:24:56.668Z,4.30
2018-03-23T03:27:24.120Z,4.30
2018-03-23T03:29:51.576Z,4.30
2018-03-23T03:32:19.041Z,4.30
2018-03-23T03:34:46.513Z,4.40
2018-03-23T03:37:13.972Z,4.50
2018-03-23T03:39:41.426Z,4.50
2018-03-23T03:42:08.875Z,4.50
2018-03-23T03:44:36.342Z,4.40
2018-03-23T03:47:03.788Z,4.30
2018-03-23T03:49:31.236Z,4.30
2018-03-23T03:51:58.695Z,4.30
2018-03-23T03:54:26.215Z,4.30
2018-03-23T03:56:53.670Z,4.30
2018-03-23T03:59:21.889Z,4.40
2018-03-23T04:01:49.353Z,4.30
2018-03-23T04:04:17.677Z,4.30
2018-03-23T04:06:45.894Z,4.30
2018-03-23T04:09:13.350Z,4.30
2018-03-23T04:11:40.808Z,4.40
2018-03-23T04:14:08.765Z,4.40
2018-03-23T04:16:36.209Z,4.50
2018-03-23T04:19:03.770Z,4.50
2018-03-23T04:21:31.348Z,4.50
2018-03-23T04:23:59.926Z,4.50
2018-03-23T04:26:27.475Z,4.50
2018-03-23T04:28:55.973Z,4.40
2018-03-23T04:31:23.428Z,4.40
2018-03-23T04:33:50.892Z,4.50
2018-03-23T04:36:18.350Z,4.40
2018-03-23T04:38:45.795Z,4.50
2018-03-23T04:41:13.259Z,4.50
2018-03-23T04:43:40.715Z,4.50
2018-03-23T04:46:08.166Z,4.40
2018-03-23T04:48:35.625Z,4.40
2018-03-23T04:51:03.089Z,4.40
2018-03-23T04:53:30.550Z,4.40
2018-03-23T04:55:57.989Z,4.30
2018-03-23T04:58:25.461Z,4.30
2018-03-23T05:00:52.899Z,4.40
2018-03-23T05:03:20.358Z,4.40
2018-03-23T05:05:47.801Z,4.30
2018-03-23T05:08:16.013Z,4.40
2018-03-23T05:10:43.455Z,4.40
2018-03-23T05:13:10.905Z,4.30
2018-03-23T05:15:38.356Z,4.40
2018-03-23T05:18:05.811Z,4.40
2018-03-23T05:20:33.379Z,4.40
2018-03-23T05:23:00.810Z,4.40
2018-03-23T05:25:29.115Z,4.50
2018-03-23T05:27:56.570Z,4.50
2018-03-23T05:30:24.030Z,4.50
2018-03-23T05:32:51.482Z,4.50
2018-03-23T05:35:18.934Z,4.40
2018-03-23T05:37:46.389Z,4.50
2018-03-23T05:40:14.869Z,4.50
2018-03-23T05:42:42.320Z,4.40
2018-03-23T05:45:10.527Z,4.50
2018-03-23T05:47:38.082Z,4.50
2018-03-23T05:50:05.521Z,4.50
2018-03-23T05:52:33.818Z,4.50
2018-03-23T05:55:01.309Z,4.50
2018-03-23T05:57:28.823Z,4.50
2018-03-23T05:59:56.376Z,4.60
2018-03-23T06:02:25.708Z,4.60
2018-03-23T06:04:53.142Z,4.60
2018-03-23T06:07:20.602Z,4.60
2018-03-23T06:09:48.041Z,4.50
2018-03-23T06:12:16.266Z,4.60
2018-03-23T06:14:43.720Z,4.60
2018-03-23T06:17:12.218Z,4.60
2018-03-23T06:19:39.679Z,4.60
2018-03-23T06:22:07.129Z,4.60
2018-03-23T06:24:34.591Z,4.60
2018-03-23T06:27:02.123Z,4.50
2018-03-23T06:29:29.577Z,4.50
2018-03-23T06:31:57.129Z,4.50
2018-03-23T06:34:24.589Z,4.50
2018-03-23T06:36:52.143Z,4.50
2018-03-23T06:39:19.584Z,4.60
2018-03-23T06:41:47.154Z,4.60
2018-03-23T06:44:14.612Z,4.70
2018-03-23T06:46:42.070Z,4.70
2018-03-23T06:49:09.510Z,4.70
2018-03-23T06:51:37.803Z,4.70
2018-03-23T06:54:05.268Z,4.70
2018-03-23T06:56:32.708Z,4.70
2018-03-23T06:59:00.276Z,4.80
2018-03-23T07:01:27.724Z,4.80
2018-03-23T07:03:55.171Z,4.80
2018-03-23T07:06:23.388Z,4.80
2018-03-23T07:08:50.828Z,4.80
2018-03-23T07:11:19.289Z,4.80
2018-03-23T07:13:47.515Z,4.80
2018-03-23T07:16:14.953Z,4.80
2018-03-23T07:18:42.426Z,4.80
2018-03-23T07:21:09.869Z,4.70
2018-03-23T07:23:37.324Z,4.70
2018-03-23T07:26:04.761Z,4.70
2018-03-23T07:28:32.217Z,4.70
2018-03-23T07:30:59.665Z,4.70
2018-03-23T07:33:27.120Z,4.80
2018-03-23T07:35:55.339Z,4.90
2018-03-23T07:38:22.799Z,4.90
2018-03-23T07:40:50.346Z,5.00
2018-03-23T07:43:17.884Z,5.00
2018-03-23T07:45:45.332Z,5.00
2018-03-23T07:48:13.612Z,5.10
2018-03-23T07:50:41.069Z,5.10
2018-03-23T07:53:09.288Z,5.20
2018-03-23T07:55:36.729Z,5.20
2018-03-23T07:58:04.198Z,5.20
2018-03-23T08:00:31.636Z,5.20
2018-03-23T08:02:59.090Z,5.20
2018-03-23T08:05:26.621Z,5.30
2018-03-23T08:07:54.837Z,5.40
2018-03-23T08:10:22.305Z,5.40
2018-03-23T08:12:49.751Z,5.40
2018-03-23T08:15:17.205Z,5.50
2018-03-23T08:17:44.908Z,5.50
2018-03-23T08:20:12.340Z,5.50
2018-03-23T08:22:40.893Z,5.60
2018-03-23T08:25:08.356Z,5.60
2018-03-23T08:27:35.801Z,5.50
2018-03-23T08:30:03.242Z,5.60
2018-03-23T08:32:31.469Z,5.60
2018-03-23T08:34:58.916Z,5.60
2018-03-23T08:37:26.361Z,5.50
2018-03-23T08:39:53.825Z,5.50
2018-03-23T08:42:21.274Z,5.50
2018-03-23T08:44:48.749Z,5.60
2018-03-23T08:47:16.319Z,5.60
2018-03-23T08:49:43.769Z,5.60
2018-03-23T08:52:11.229Z,5.60
2018-03-23T08:54:38.664Z,5.60
2018-03-23T08:57:06.221Z,5.70
2018-03-23T08:59:33.671Z,5.70
2018-03-23T09:02:01.196Z,5.70
2018-03-23T09:04:28.624Z,5.80
2018-03-23T09:06:56.063Z,5.90
2018-03-23T09:09:23.549Z,5.90
2018-03-23T09:11:52.615Z,6.00
2018-03-23T09:14:20.141Z,6.00
2018-03-23T09:16:49.357Z,6.20
2018-03-23T09:19:17.833Z,6.20
2018-03-23T09:21:45.277Z,6.30
2018-03-23T09:24:13.495Z,6.30
2018-03-23T09:26:40.986Z,6.30
2018-03-23T09:29:09.508Z,6.40
2018-03-23T09:31:36.961Z,6.50
2018-03-23T09:34:04.406Z,6.50
2018-03-23T09:36:32.641Z,6.50
2018-03-23T09:39:00.859Z,6.60
2018-03-23T09:41:29.165Z,6.70
2018-03-23T09:43:56.624Z,6.70
2018-03-23T09:46:24.065Z,6.80
2018-03-23T09:48:53.570Z,6.90
2018-03-23T09:51:21.188Z,7.00
2018-03-23T09:53:48.640Z,7.00
2018-03-23T09:56:16.083Z,7.20
2018-03-23T09:58:43.558Z,7.30
2018-03-23T10:01:11.011Z,7.30
2018-03-23T10:03:38.482Z,7.30
2018-03-23T10:06:06.697Z,7.40
2018-03-23T10:08:35.185Z,7.40
2018-03-23T10:11:02.628Z,7.40
2018-03-23T10:13:30.077Z,7.40
2018-03-23T10:15:58.289Z,7.70
2018-03-23T10:18:25.739Z,7.70
2018-03-23T10:20:53.247Z,7.80
2018-03-23T10:23:20.637Z,8.00
2018-03-23T10:25:48.091Z,8.00
2018-03-23T10:28:15.544Z,8.10
2018-03-23T10:30:43.014Z,8.20
2018-03-23T10:33:10.466Z,8.30
2018-03-23T10:35:37.924Z,8.50
2018-03-23T10:38:05.366Z,8.50
2018-03-23T10:40:33.584Z,8.60
2018-03-23T10:43:01.085Z,8.60
2018-03-23T10:45:28.812Z,8.70
2018-03-23T10:47:56.271Z,8.70
2018-03-23T10:50:23.724Z,8.70
2018-03-23T10:52:51.229Z,8.70
2018-03-23T10:55:18.689Z,8.70
2018-03-23T10:57:46.114Z,8.60
2018-03-23T11:00:13.589Z,8.50
2018-03-23T11:02:41.057Z,8.60
2018-03-23T11:05:08.537Z,8.60
2018-03-23T11:07:35.985Z,8.60
2018-03-23T11:10:04.201Z,8.60
2018-03-23T11:12:31.728Z,8.60
2018-03-23T11:14:59.228Z,8.70
2018-03-23T11:17:26.667Z,8.70
2018-03-23T11:19:55.126Z,8.70
2018-03-23T11:22:22.572Z,8.70
2018-03-23T11:24:50.042Z,8.60
2018-03-23T11:27:17.498Z,8.60
2018-03-23T11:29:44.991Z,8.50
2018-03-23T11:32:12.444Z,8.50
2018-03-23T11:34:39.922Z,8.50
2018-03-23T11:37:07.376Z,8.50
2018-03-23T11:39:34.900Z,8.50
2018-03-23T11:42:02.390Z,8.50
2018-03-23T11:44:29.830Z,8.70
2018-03-23T11:46:57.362Z,8.80
2018-03-23T11:49:24.805Z,8.80
2018-03-23T11:51:53.021Z,8.80
2018-03-23T11:54:20.492Z,8.80
2018-03-23T11:56:47.931Z,8.80
2018-03-23T11:59:15.380Z,8.80
2018-03-23T12:01:42.816Z,8.80
2018-03-23T12:04:10.293Z,8.80
2018-03-23T12:06:37.724Z,8.70
2018-03-23T12:09:06.046Z,8.80
2018-03-23T12:11:33.498Z,8.70
2018-03-23T12:14:01.042Z,8.70
2018-03-23T12:16:28.501Z,8.60
2018-03-23T12:18:56.069Z,8.60
2018-03-23T12:21:23.607Z,8.70
2018-03-23T12:23:51.171Z,8.70
2018-03-23T12:26:18.749Z,8.60
2018-03-23T12:28:46.283Z,8.50
2018-03-23T12:31:13.752Z,8.30
2018-03-23T12:33:41.298Z,8.30
2018-03-23T12:36:08.857Z,8.40
2018-03-23T12:38:36.445Z,8.50
2018-03-23T12:41:03.903Z,8.50
2018-03-23T12:43:31.455Z,8.50
2018-03-23T12:46:02.981Z,8.50
2018-03-23T12:48:31.272Z,8.50
2018-03-23T12:50:58.835Z,8.50
2018-03-23T12:53:26.392Z,8.50
2018-03-23T12:55:53.931Z,8.50
2018-03-23T12:58:22.157Z,8.60
2018-03-23T13:00:49.674Z,8.50
2018-03-23T13:03:17.952Z,8.50
2018-03-23T13:05:45.402Z,8.50
2018-03-23T13:08:13.626Z,8.50
2018-03-23T13:10:41.068Z,8.50
2018-03-23T13:13:08.504Z,8.40
2018-03-23T13:15:35.956Z,8.50
2018-03-23T13:18:03.417Z,8.40
2018-03-23T13:20:31.620Z,8.40
2018-03-23T13:22:59.070Z,8.40
2018-03-23T13:25:26.520Z,8.50
2018-03-23T13:27:53.979Z,8.50
2018-03-23T13:30:21.422Z,8.50
2018-03-23T13:32:48.857Z,8.50
2018-03-23T13:35:17.079Z,8.50
2018-03-23T13:37:44.523Z,8.50
2018-03-23T13:40:11.982Z,8.50
2018-03-23T13:42:39.443Z,8.50
2018-03-23T13:45:06.869Z,8.40
2018-03-23T13:47:35.075Z,8.30
2018-03-23T13:50:02.613Z,8.30
2018-03-23T13:52:29.957Z,8.30
2018-03-23T13:54:58.178Z,8.40
2018-03-23T13:57:25.629Z,8.30
2018-03-23T13:59:59.028Z,8.30
2018-03-23T14:02:26.523Z,8.30
2018-03-23T14:04:53.918Z,8.30
2018-03-23T14:07:21.361Z,8.40
2018-03-23T14:09:49.574Z,8.30
2018-03-23T14:12:17.021Z,8.30
2018-03-23T14:14:44.471Z,8.20
2018-03-23T14:17:12.992Z,8.20
2018-03-23T14:19:40.400Z,8.20
2018-03-23T14:22:08.601Z,8.30
2018-03-23T14:24:36.059Z,8.30
2018-03-23T14:27:03.504Z,8.30
2018-03-23T14:29:30.950Z,8.20
2018-03-23T14:31:58.406Z,8.20
2018-03-23T14:34:25.851Z,8.20
2018-03-23T14:36:53.289Z,8.30
2018-03-23T14:39:20.744Z,8.20
2018-03-23T14:41:48.178Z,8.10
2018-03-23T14:44:15.702Z,8.00
2018-03-23T14:46:43.207Z,8.00
2018-03-23T14:49:10.663Z,8.00
2018-03-23T14:51:38.104Z,8.00
2018-03-23T14:54:05.559Z,8.10
2018-03-23T14:56:34.002Z,8.10
2018-03-23T14:59:07.119Z,8.20
2018-03-23T15:01:35.294Z,8.10
2018-03-23T15:04:02.741Z,8.10
2018-03-23T15:06:30.209Z,8.10
2018-03-23T15:08:57.722Z,8.10
2018-03-23T15:11:27.010Z,8.00
2018-03-23T15:14:06.464Z,8.00
2018-03-23T15:16:34.736Z,8.00
2018-03-23T15:19:02.157Z,8.00
2018-03-23T15:21:29.683Z,8.00
2018-03-23T15:23:57.148Z,8.00
2018-03-23T15:26:24.607Z,8.00
2018-03-23T15:28:52.052Z,8.00
2018-03-23T15:31:19.559Z,8.00
2018-03-23T15:33:46.996Z,8.00
2018-03-23T15:36:14.659Z,8.00
2018-03-23T15:38:42.087Z,8.00
2018-03-23T15:41:09.524Z,8.00
2018-03-23T15:43:36.977Z,7.90
2018-03-23T15:46:05.256Z,7.90
2018-03-23T15:48:33.468Z,8.00
2018-03-23T15:51:00.936Z,8.00
2018-03-23T15:53:28.377Z,7.90
2018-03-23T15:55:55.824Z,7.90
2018-03-23T15:58:23.375Z,7.90
2018-03-23T16:00:50.959Z,8.00
2018-03-23T16:03:18.406Z,7.90
2018-03-23T16:05:45.859Z,7.80
2018-03-23T16:08:13.510Z,7.80
2018-03-23T16:10:40.972Z,7.80
2018-03-23T16:13:08.473Z,7.80
2018-03-23T16:15:35.904Z,7.80
2018-03-23T16:18:03.456Z,7.80
2018-03-23T16:20:30.940Z,7.80
2018-03-23T16:22:58.401Z,7.70
2018-03-23T16:25:25.838Z,7.70
2018-03-23T16:27:53.297Z,7.80
2018-03-23T16:30:20.774Z,7.80
2018-03-23T16:32:48.293Z,7.80
2018-03-23T16:35:15.725Z,7.80
2018-03-23T16:37:44.043Z,7.70
2018-03-23T16:40:11.495Z,7.70
2018-03-23T16:42:38.988Z,7.70
2018-03-23T16:45:06.617Z,7.80
2018-03-23T16:47:34.059Z,7.80
2018-03-23T16:50:02.098Z,7.80
2018-03-23T16:52:29.585Z,7.70
2018-03-23T16:54:57.880Z,7.70
2018-03-23T16:57:25.320Z,7.70
2018-03-23T16:59:53.844Z,7.70
2018-03-23T17:02:21.302Z,7.60
2018-03-23T17:04:48.903Z,7.60
2018-03-23T17:07:16.345Z,7.70
2018-03-23T17:09:43.797Z,7.70
2018-03-23T17:12:11.274Z,7.70
2018-03-23T17:14:39.511Z,7.70
2018-03-23T17:17:06.973Z,7.70
2018-03-23T17:19:34.426Z,7.60
2018-03-23T17:22:01.887Z,7.70
2018-03-23T17:24:29.370Z,7.70
2018-03-23T17:26:57.645Z,7.80
2018-03-23T17:29:25.108Z,7.70
2018-03-23T17:31:56.875Z,7.80
2018-03-23T17:34:25.087Z,7.80
2018-03-23T17:36:52.531Z,7.80
2018-03-23T17:39:19.968Z,7.80
2018-03-23T17:41:48.251Z,7.80
2018-03-23T17:44:15.685Z,7.80
2018-03-23T17:46:43.907Z,7.90
2018-03-23T17:49:11.356Z,7.80
2018-03-23T17:51:38.814Z,7.80
2018-03-23T17:54:06.262Z,7.80
2018-03-23T17:56:34.472Z,7.80
2018-03-23T17:59:04.952Z,7.80
2018-03-23T18:01:33.165Z,7.80
2018-03-23T18:04:00.615Z,7.70
2018-03-23T18:06:28.060Z,7.80
2018-03-23T18:08:55.623Z,7.70
2018-03-23T18:11:23.084Z,7.80
2018-03-23T18:13:50.529Z,7.80
2018-03-23T18:16:17.977Z,7.70
2018-03-23T18:18:45.471Z,7.70
2018-03-23T18:21:13.001Z,7.70
2018-03-23T18:23:40.446Z,7.60
2018-03-23T18:26:08.677Z,7.60
2018-03-23T18:28:36.984Z,7.60
2018-03-23T18:31:05.217Z,7.60
2018-03-23T18:33:32.692Z,7.60
2018-03-23T18:36:00.129Z,7.50
2018-03-23T18:38:27.584Z,7.50
2018-03-23T18:40:55.023Z,7.40
2018-03-23T18:43:22.465Z,7.40
2018-03-23T18:45:49.899Z,7.40
2018-03-23T18:48:17.340Z,7.40
2018-03-23T18:50:44.777Z,7.40
2018-03-23T18:53:12.222Z,7.40
2018-03-23T18:55:39.665Z,7.40
2018-03-23T18:58:07.122Z,7.40
2018-03-23T19:00:34.565Z,7.40
2018-03-23T19:03:02.038Z,7.40
2018-03-23T19:05:30.217Z,7.50
2018-03-23T19:07:57.658Z,7.50
2018-03-23T19:10:25.104Z,7.50
2018-03-23T19:12:53.316Z,7.50
2018-03-23T19:15:20.870Z,7.50
2018-03-23T19:17:48.203Z,7.50
2018-03-23T19:20:15.649Z,7.50
2018-03-23T19:22:43.869Z,7.50
2018-03-23T19:25:11.329Z,7.50
2018-03-23T19:27:39.764Z,7.40
2018-03-23T19:30:07.984Z,7.30
2018-03-23T19:32:40.297Z,7.30
2018-03-23T19:35:08.524Z,7.30
2018-03-23T19:37:35.957Z,7.30
2018-03-23T19:40:03.408Z,7.30
2018-03-23T19:42:30.848Z,7.40
2018-03-23T19:44:59.064Z,7.30
2018-03-23T19:47:26.519Z,7.30
2018-03-23T19:49:53.968Z,7.30
2018-03-23T19:52:21.402Z,7.20
2018-03-23T19:54:49.613Z,7.30
2018-03-23T19:57:17.057Z,7.30
2018-03-23T19:59:44.520Z,7.30
2018-03-23T20:02:11.940Z,7.30
2018-03-23T20:04:40.154Z,7.30
2018-03-23T20:07:07.613Z,7.30
2018-03-23T20:09:35.077Z,7.20
2018-03-23T20:12:02.699Z,7.30
2018-03-23T20:14:30.908Z,7.30
2018-03-23T20:16:58.366Z,7.30
2018-03-23T20:19:25.817Z,7.30
2018-03-23T20:21:53.241Z,7.30
2018-03-23T20:24:27.103Z,7.30
2018-03-23T20:26:54.577Z,7.30
2018-03-23T20:29:22.004Z,7.30
2018-03-23T20:31:55.190Z,7.30
2018-03-23T20:34:22.624Z,7.30
2018-03-23T20:36:50.132Z,7.30
2018-03-23T20:39:17.631Z,7.30
2018-03-23T20:41:45.884Z,7.20
2018-03-23T20:44:13.329Z,7.20
2018-03-23T20:46:40.767Z,7.20
2018-03-23T20:49:08.218Z,7.20
2018-03-23T20:51:35.652Z,7.10
2018-03-23T20:54:03.090Z,7.10
2018-03-23T20:56:31.296Z,7.00
2018-03-23T20:58:58.740Z,7.00
2018-03-23T21:01:26.180Z,7.00
2018-03-23T21:03:54.393Z,6.90
2018-03-23T21:06:21.842Z,6.90
2018-03-23T21:08:49.277Z,6.80
2018-03-23T21:11:16.734Z,6.80
2018-03-23T21:13:44.940Z,6.70
2018-03-23T21:16:12.375Z,6.70
2018-03-23T21:18:40.844Z,6.60
2018-03-23T21:21:08.293Z,6.50
2018-03-23T21:23:36.524Z,6.40
2018-03-23T21:26:03.944Z,6.40
2018-03-23T21:28:31.398Z,6.40
2018-03-23T21:30:58.824Z,6.30
2018-03-23T21:33:27.043Z,6.30
2018-03-23T21:35:54.484Z,6.30
2018-03-23T21:38:21.930Z,6.20
2018-03-23T21:40:50.125Z,6.10
2018-03-23T21:43:17.571Z,6.10
2018-03-23T21:45:44.995Z,6.10
2018-03-23T21:48:12.442Z,6.10
2018-03-23T21:50:39.878Z,6.00
2018-03-23T21:53:07.334Z,6.00
2018-03-23T21:55:34.792Z,6.00
2018-03-23T21:58:02.236Z,6.00
2018-03-23T22:00:29.675Z,6.00
2018-03-23T22:02:57.128Z,5.90
2018-03-23T22:05:24.560Z,5.90
2018-03-23T22:07:51.989Z,5.90
2018-03-23T22:10:19.431Z,5.90
2018-03-23T22:12:46.861Z,5.90
2018-03-23T22:15:15.342Z,5.90
2018-03-23T22:17:42.774Z,5.90
2018-03-23T22:20:10.216Z,5.90
2018-03-23T22:22:37.659Z,5.90
2018-03-23T22:25:05.102Z,5.90
2018-03-23T22:27:33.859Z,5.90
2018-03-23T22:30:02.158Z,5.80
2018-03-23T22:32:29.600Z,5.80
2018-03-23T22:34:57.036Z,5.80
2018-03-23T22:37:25.240Z,5.80
2018-03-23T22:39:55.641Z,5.80
2018-03-23T22:42:23.840Z,5.90
2018-03-23T22:44:51.296Z,5.80
2018-03-23T22:47:18.729Z,5.90
2018-03-23T22:49:46.176Z,5.90
2018-03-23T22:52:14.386Z,5.90
2018-03-23T22:54:41.829Z,5.80
2018-03-23T22:57:09.261Z,5.80
2018-03-23T22:59:37.492Z,5.90
2018-03-23T23:02:04.917Z,5.80
2018-03-23T23:04:32.364Z,5.80
2018-03-23T23:07:00.574Z,5.70
2018-03-23T23:09:28.013Z,5.70
2018-03-23T23:11:55.562Z,5.70
2018-03-23T23:14:22.992Z,5.70
2018-03-23T23:16:51.198Z,5.70
2018-03-23T23:19:18.629Z,5.70
2018-03-23T23:21:46.851Z,5.70
2018-03-23T23:24:14.278Z,5.70
2018-03-23T23:26:41.753Z,5.70
2018-03-23T23:29:09.926Z,5.70
2018-03-23T23:31:37.367Z,5.60
2018-03-23T23:34:04.799Z,5.60
2018-03-23T23:36:33.014Z,5.50
2018-03-23T23:39:00.497Z,5.50
2018-03-23T23:41:29.063Z,5.60
2018-03-23T23:43:56.490Z,5.60
2018-03-23T23:46:24.696Z,5.60
2018-03-23T23:48:52.126Z,5.60
2018-03-23T23:51:19.588Z,5.60
2018-03-23T23:53:47.025Z,5.70
2018-03-23T23:56:15.234Z,5.70
2018-03-23T23:58:42.678Z,5.70
